Time;durP1;ratioP1;P1;durP2;ratioP2;P2;SDS_P1;SDS_P2;PMS_P1;PMS_P2;Temp;Humidity;BMP_temperature;BMP_pressure;BME280_temperature;BME280_humidity;BME280_pressure;Samples;Min_cycle;Max_cycle;Signal;HPM_P1;HPM_P2
2023/01/12 00:01:50;;;;;;;11.15;4.97;;;;;;;7.09;100.00;101162.25;5223881;28;20025;-83
2023/01/12 00:04:20;;;;;;;3.83;3.53;;;;;;;6.57;100.00;101057.16;5228004;28;20095;-84
2023/01/12 00:06:51;;;;;;;7.40;3.83;;;;;;;7.11;100.00;101142.19;5226606;28;20371;-84
2023/01/12 00:09:21;;;;;;;7.07;4.18;;;;;;;7.01;100.00;101115.03;5226216;28;20081;-83
2023/01/12 00:11:51;;;;;;;7.75;5.10;;;;;;;7.28;100.00;101160.34;5208667;28;20088;-86
2023/01/12 00:14:22;;;;;;;12.93;5.90;;;;;;;7.28;100.00;101146.91;5216295;28;20032;-83
2023/01/12 00:16:52;;;;;;;11.57;5.63;;;;;;;7.28;100.00;101158.47;5215284;28;20026;-83
2023/01/12 00:19:23;;;;;;;4.82;3.85;;;;;;;7.05;100.00;101105.50;5215652;28;20053;-84
2023/01/12 00:22:00;;;;;;;5.30;3.78;;;;;;;7.30;100.00;101134.09;5215389;28;20021;-84
2023/01/12 00:24:36;;;;;;;10.30;4.22;;;;;;;7.28;100.00;101126.25;5197969;28;20043;-84
2023/01/12 00:27:15;;;;;;;22.50;6.32;;;;;;;6.81;100.00;101051.91;5215326;28;20032;-84
2023/01/12 00:29:45;;;;;;;11.68;6.05;;;;;;;7.20;100.00;101099.72;5216261;28;20033;-83
2023/01/12 00:32:18;;;;;;;11.73;5.93;;;;;;;7.34;100.00;101121.84;5197267;28;20025;-85
2023/01/12 00:34:49;;;;;;;11.35;5.95;;;;;;;7.21;100.00;101096.00;5217672;28;20239;-84
2023/01/12 00:37:19;;;;;;;5.75;5.00;;;;;;;6.86;100.00;101033.28;5219430;28;20025;-82
2023/01/12 00:39:49;;;;;;;12.48;5.88;;;;;;;6.72;100.00;101016.50;5219539;28;20057;-82
2023/01/12 00:45:21;;;;;;;12.80;5.30;;;;;;;7.34;100.00;101082.38;5219806;28;20067;-85
2023/01/12 00:47:52;;;;;;;17.75;5.97;;;;;;;7.32;100.00;101078.25;5219533;28;20035;-81
2023/01/12 00:50:23;;;;;;;12.45;4.22;;;;;;;7.22;100.00;101048.47;5201821;28;20076;-83
2023/01/12 00:52:53;;;;;;;8.68;6.10;;;;;;;6.32;100.00;100900.88;5218567;28;20030;-82
2023/01/12 00:55:23;;;;;;;12.30;5.13;;;;;;;6.94;100.00;101014.97;5219049;28;20017;-83
2023/01/12 00:57:54;;;;;;;21.52;7.88;;;;;;;7.33;100.00;101059.22;5201657;28;20022;-84
2023/01/12 01:00:24;;;;;;;6.07;4.90;;;;;;;7.33;100.00;101082.59;5219325;28;20021;-84
2023/01/12 01:02:55;;;;;;;22.48;6.53;;;;;;;6.93;100.00;100986.47;5219615;28;20052;-83
2023/01/12 01:05:25;;;;;;;7.78;4.55;;;;;;;7.29;100.00;101043.78;5218844;28;20028;-83
2023/01/12 01:07:56;;;;;;;8.20;4.60;;;;;;;7.38;100.00;101066.59;5237143;28;20055;-84
2023/01/12 01:10:26;;;;;;;8.07;5.82;;;;;;;7.38;100.00;101066.59;5260546;28;20559;-83
2023/01/12 01:12:56;;;;;;;6.57;5.35;;;;;;;6.71;100.00;100961.19;5260828;28;20494;-83
2023/01/12 01:15:27;;;;;;;12.88;5.72;;;;;;;7.34;100.00;101050.13;5260533;28;20024;-84
2023/01/12 01:17:57;;;;;;;11.10;4.53;;;;;;;7.41;100.00;101053.53;5242989;28;20381;-85
2023/01/12 01:20:29;;;;;;;25.00;7.28;;;;;;;7.21;100.00;101020.78;5260135;28;20020;-83
2023/01/12 01:22:59;;;;;;;19.02;6.15;;;;;;;6.89;100.00;100960.34;5260042;28;20028;-82
2023/01/12 01:25:31;;;;;;;21.65;6.22;;;;;;;7.33;100.00;101042.28;5259338;28;20028;-82
2023/01/12 01:28:02;;;;;;;6.25;5.75;;;;;;;7.31;100.00;101031.78;5241727;28;20478;-83
2023/01/12 01:30:32;;;;;;;8.40;5.13;;;;;;;7.31;100.00;101039.00;5259566;28;20028;-83
2023/01/12 01:33:02;;;;;;;9.45;4.72;;;;;;;7.28;100.00;101029.56;5241814;28;20110;-83
2023/01/12 01:35:34;;;;;;;15.07;6.22;;;;;;;7.27;100.00;101041.34;5262067;28;20076;-83
2023/01/12 01:38:05;;;;;;;9.48;6.20;;;;;;;7.18;100.00;101012.38;5265133;28;20075;-82
2023/01/12 01:40:41;;;;;;;15.18;5.63;;;;;;;7.16;100.00;100993.81;5264971;28;20024;-83
2023/01/12 01:43:47;;;;;;;12.32;6.63;;;;;;;7.26;100.00;101018.22;5261647;28;20024;-83
2023/01/12 01:46:44;;;;;;;15.77;6.95;;;;;;;7.28;100.00;101024.19;5239950;28;20470;-83
2023/01/12 01:49:35;;;;;;;15.75;6.90;;;;;;;7.28;100.00;101013.44;5230208;28;20409;-83
2023/01/12 01:52:17;;;;;;;5.95;4.72;;;;;;;7.29;100.00;101014.25;5259057;28;20031;-83
2023/01/12 01:54:57;;;;;;;10.32;5.35;;;;;;;6.67;100.00;100919.75;5259561;28;20071;-82
2023/01/12 01:57:47;;;;;;;;;;;;;;;7.34;100.00;101046.63;5241453;28;20023;-83
2023/01/12 02:00:18;;;;;;;15.43;5.90;;;;;;;7.34;100.00;101028.63;5267365;22;19924;-83
2023/01/12 02:02:49;;;;;;;9.90;5.90;;;;;;;7.37;100.00;101020.13;5251393;28;20020;-84
2023/01/12 02:05:23;;;;;;;14.80;5.57;;;;;;;7.35;100.00;100998.03;5233672;28;20035;-84
2023/01/12 02:07:57;;;;;;;11.02;5.43;;;;;;;7.43;100.00;101019.19;5252447;28;20489;-85
2023/01/12 02:10:27;;;;;;;20.70;5.95;;;;;;;7.33;100.00;100997.44;5251822;28;20482;-86
2023/01/12 02:19:04;;;;;;;17.73;5.30;;;;;;;7.54;100.00;100987.19;5253007;28;20039;-85
2023/01/12 02:21:56;;;;;;;10.07;4.43;;;;;;;7.55;100.00;100991.50;5251696;28;20028;-85
2023/01/12 02:24:36;;;;;;;11.25;5.05;;;;;;;7.56;100.00;100985.91;5235402;28;20443;-84
2023/01/12 02:27:16;;;;;;;12.88;6.03;;;;;;;7.58;100.00;100980.28;5251802;28;20512;-84
2023/01/12 02:29:49;;;;;;;5.10;4.63;;;;;;;7.57;100.00;100976.78;5233157;28;20467;-83
2023/01/12 02:32:26;;;;;;;13.55;6.80;;;;;;;7.61;100.00;100969.09;5232374;28;20055;-83
2023/01/12 02:35:20;;;;;;;5.40;4.03;;;;;;;7.59;100.00;100955.88;5233003;28;20032;-84
2023/01/12 02:38:03;;;;;;;9.35;5.05;;;;;;;7.53;100.00;100947.91;5250086;28;20020;-84
2023/01/12 02:40:51;;;;;;;7.15;4.88;;;;;;;7.49;100.00;100926.09;5232327;28;20040;-83
2023/01/12 02:43:30;;;;;;;6.72;5.07;;;;;;;7.60;100.00;100943.25;5250489;28;20028;-84
2023/01/12 02:46:13;;;;;;;17.08;6.18;;;;;;;7.33;100.00;100897.22;5250673;28;20094;-84
2023/01/12 02:49:22;;;;;;;11.60;6.57;;;;;;;7.61;100.00;100934.16;5233050;28;20028;-83
2023/01/12 02:51:57;;;;;;;5.30;4.82;;;;;;;7.59;100.00;100938.94;5146992;28;20117;-83
2023/01/12 02:54:29;;;;;;;12.38;4.93;;;;;;;7.58;100.00;100934.59;5223264;28;20044;-83
2023/01/12 02:57:05;;;;;;;10.75;4.68;;;;;;;7.52;100.00;100908.66;5250181;28;20020;-84
2023/01/12 02:59:40;;;;;;;13.18;7.00;;;;;;;7.41;100.00;100904.94;5250652;28;20024;-84
2023/01/12 03:02:23;;;;;;;15.13;5.20;;;;;;;7.55;100.00;100913.56;5232076;28;20112;-84
2023/01/12 03:04:54;;;;;;;7.68;4.38;;;;;;;7.32;100.00;100882.97;5231896;28;20032;-84
2023/01/12 03:07:36;;;;;;;13.73;5.80;;;;;;;7.54;100.00;100902.00;5232037;28;20360;-84
2023/01/12 03:10:38;;;;;;;10.18;4.65;;;;;;;7.54;100.00;100895.81;5232057;28;20086;-84
2023/01/12 03:13:12;;;;;;;14.45;4.85;;;;;;;7.49;100.00;100872.38;5231377;28;20429;-84
2023/01/12 03:15:49;;;;;;;12.20;4.53;;;;;;;7.44;100.00;100848.88;5250962;28;20025;-84
2023/01/12 03:18:40;;;;;;;10.13;4.60;;;;;;;7.52;100.00;100868.34;5250247;28;20460;-84
2023/01/12 03:21:19;;;;;;;10.18;5.90;;;;;;;7.34;100.00;100837.91;5233434;28;20085;-83
2023/01/12 03:24:11;;;;;;;12.60;4.82;;;;;;;7.51;100.00;100856.00;5250814;28;20027;-84
2023/01/12 03:26:48;;;;;;;14.75;5.70;;;;;;;7.38;100.00;100820.25;5250167;28;20032;-84
2023/01/12 03:29:36;;;;;;;10.93;4.65;;;;;;;7.51;100.00;100847.94;5233324;28;20031;-84
2023/01/12 03:32:07;;;;;;;12.20;4.55;;;;;;;7.49;100.00;100826.69;5249262;28;20129;-84
2023/01/12 03:34:37;;;;;;;8.20;4.55;;;;;;;7.35;100.00;100803.78;5249475;28;20285;-84
2023/01/12 03:37:33;;;;;;;14.73;5.20;;;;;;;7.49;100.00;100815.13;5250051;28;20017;-84
2023/01/12 03:40:25;;;;;;;22.35;5.45;;;;;;;7.50;100.00;100816.75;5234030;28;20043;-84
2023/01/12 03:43:08;;;;;;;4.63;4.28;;;;;;;7.42;100.00;100818.75;5250646;28;20024;-84
2023/01/12 03:45:41;;;;;;;10.05;5.25;;;;;;;7.33;100.00;100785.22;5232420;28;20124;-84
2023/01/12 03:48:28;;;;;;;12.52;4.97;;;;;;;7.48;100.00;100808.94;5250051;28;20024;-83
2023/01/12 03:51:10;;;;;;;6.75;3.83;;;;;;;7.40;100.00;100785.94;5250158;28;20044;-84
2023/01/12 03:53:42;;;;;;;16.77;6.05;;;;;;;7.30;100.00;100760.72;5249951;28;20099;-84
2023/01/12 03:56:15;;;;;;;8.70;6.07;;;;;;;7.36;100.00;100760.59;5232797;28;20024;-84
2023/01/12 03:58:47;;;;;;;21.65;6.38;;;;;;;7.45;100.00;100769.91;5233059;28;20025;-84
2023/01/12 04:01:17;;;;;;;9.27;5.72;;;;;;;7.44;100.00;100760.22;5232436;28;20049;-84
2023/01/12 04:03:48;;;;;;;13.20;5.53;;;;;;;7.44;100.00;100773.66;5231684;28;20119;-84
2023/01/12 04:06:18;;;;;;;18.85;6.93;;;;;;;7.37;100.00;100751.47;5249774;28;20032;-84
2023/01/12 04:08:48;;;;;;;6.32;5.45;;;;;;;7.35;100.00;100736.66;5232314;28;20025;-84
2023/01/12 04:14:08;;;;;;;11.85;6.00;;;;;;;7.30;100.00;100741.91;5254212;28;20043;-85
2023/01/12 04:16:38;;;;;;;19.50;4.95;;;;;;;7.31;100.00;100730.09;5235661;28;20020;-84
2023/01/12 04:19:08;;;;;;;9.77;4.80;;;;;;;7.27;100.00;100710.97;5236148;28;20025;-84
2023/01/12 04:24:28;;;;;;;7.78;6.25;;;;;;;7.26;100.00;100695.91;5254201;28;20111;-85
2023/01/12 04:26:58;;;;;;;10.63;5.40;;;;;;;7.00;100.00;100654.28;5253223;28;20449;-84
2023/01/12 04:29:28;;;;;;;8.32;4.90;;;;;;;7.20;100.00;100669.19;5253715;28;20039;-85
2023/01/12 04:31:59;;;;;;;11.02;5.47;;;;;;;7.34;100.00;100710.84;5253395;28;20036;-85
2023/01/12 04:34:29;;;;;;;8.88;3.97;;;;;;;7.09;100.00;100652.88;5253592;28;20461;-84
2023/01/12 04:37:00;;;;;;;6.47;4.90;;;;;;;7.39;100.00;100701.00;5236134;28;20450;-84
2023/01/12 04:39:31;;;;;;;10.88;6.10;;;;;;;7.30;100.00;100686.31;5236252;28;20035;-85
2023/01/12 04:42:01;;;;;;;7.57;5.63;;;;;;;7.42;100.00;100700.53;5253597;28;20024;-85
2023/01/12 04:44:33;;;;;;;12.50;7.25;;;;;;;7.36;100.00;100679.19;5253287;28;20063;-84
2023/01/12 04:47:06;;;;;;;10.88;5.32;;;;;;;7.42;100.00;100689.78;5253346;28;20074;-85
2023/01/12 04:49:36;;;;;;;24.02;5.75;;;;;;;7.38;100.00;100669.00;5236273;28;20028;-84
2023/01/12 04:52:06;;;;;;;10.18;6.43;;;;;;;7.29;100.00;100652.44;5253469;28;20028;-85
2023/01/12 04:54:37;;;;;;;9.70;6.05;;;;;;;7.43;100.00;100669.13;5252761;28;20158;-85
2023/01/12 04:57:07;;;;;;;11.27;5.53;;;;;;;7.43;100.00;100678.00;5252476;28;20024;-85
2023/01/12 04:59:37;;;;;;;9.80;4.03;;;;;;;7.34;100.00;100655.25;5252301;28;20044;-85
2023/01/12 05:02:08;;;;;;;27.70;6.63;;;;;;;7.38;100.00;100669.81;5252071;28;20112;-85
2023/01/12 05:04:38;;;;;;;13.15;6.00;;;;;;;7.31;100.00;100644.97;5252021;28;20028;-85
2023/01/12 05:07:08;;;;;;;19.65;4.93;;;;;;;7.46;100.00;100668.63;5250775;28;20513;-85
2023/01/12 05:12:29;;;;;;;;;;;;;;;7.49;100.00;100689.66;5252729;28;20048;-85
2023/01/12 05:14:59;;;;;;;5.80;4.90;;;;;;;7.50;100.00;100655.53;5233918;28;19912;-85
2023/01/12 05:17:31;;;;;;;6.75;5.05;;;;;;;7.40;100.00;100648.09;5251340;28;20331;-85
2023/01/12 05:20:01;;;;;;;9.75;4.80;;;;;;;7.51;100.00;100662.53;5233943;28;20028;-85
2023/01/12 05:22:31;;;;;;;12.88;5.22;;;;;;;7.53;100.00;100658.53;5235312;28;20036;-85
2023/01/12 05:25:02;;;;;;;15.77;5.55;;;;;;;7.50;100.00;100655.53;5252022;28;20051;-85
2023/01/12 05:27:32;;;;;;;9.95;3.55;;;;;;;7.45;100.00;100640.94;5252038;28;20050;-85
2023/01/12 05:30:03;;;;;;;10.98;5.10;;;;;;;7.56;100.00;100654.56;5252037;28;20024;-85
2023/01/12 05:32:38;;;;;;;12.05;5.78;;;;;;;7.48;100.00;100636.97;5252328;28;20032;-85
2023/01/12 05:35:08;;;;;;;5.18;3.42;;;;;;;7.58;100.00;100649.75;5234454;28;20020;-85
2023/01/12 05:37:38;;;;;;;5.85;4.55;;;;;;;7.52;100.00;100648.03;5233744;28;20078;-85
2023/01/12 05:40:10;;;;;;;7.78;4.30;;;;;;;7.50;100.00;100634.03;5233680;28;20417;-85
2023/01/12 05:45:29;;;;;;;10.63;3.63;;;;;;;7.57;100.00;100640.06;5252485;28;20040;-84
2023/01/12 05:48:00;;;;;;;7.35;3.25;;;;;;;7.52;100.00;100613.09;5252215;28;20466;-84
2023/01/12 05:50:31;;;;;;;3.88;3.53;;;;;;;7.65;100.00;100650.44;5253121;28;20077;-84
2023/01/12 05:53:01;;;;;;;11.45;2.97;;;;;;;7.66;100.00;100635.94;5259966;28;20024;-85
2023/01/12 05:55:32;;;;;;;6.65;3.65;;;;;;;7.67;100.00;100632.19;5269317;28;20557;-84
2023/01/12 05:58:02;;;;;;;10.02;4.15;;;;;;;7.29;100.00;100588.00;5272506;28;20039;-84
2023/01/12 06:00:32;;;;;;;8.15;3.85;;;;;;;7.68;100.00;100639.19;5265436;28;20032;-84
2023/01/12 06:03:03;;;;;;;6.57;4.20;;;;;;;7.45;100.00;100621.34;5255216;28;20374;-83
2023/01/12 06:05:33;;;;;;;10.80;4.63;;;;;;;7.68;100.00;100634.63;5252900;28;20028;-85
2023/01/12 06:08:04;;;;;;;9.90;3.80;;;;;;;7.39;100.00;100593.56;5253887;28;20020;-84
2023/01/12 06:10:35;;;;;;;3.47;3.28;;;;;;;7.69;100.00;100643.53;5245443;28;20099;-84
2023/01/12 06:16:07;;;;;;;9.65;3.75;;;;;;;7.68;100.00;100656.13;5230593;28;20064;-85
2023/01/12 06:18:39;;;;;;;6.72;3.95;;;;;;;7.68;100.00;100647.25;5212862;28;20086;-85
2023/01/12 06:21:09;;;;;;;17.80;5.22;;;;;;;7.20;100.00;100578.72;5229460;28;20029;-85
2023/01/12 06:23:40;;;;;;;6.38;2.88;;;;;;;7.45;100.00;100632.06;5229096;28;20392;-84
2023/01/12 06:26:10;;;;;;;5.05;3.63;;;;;;;7.70;100.00;100658.59;5230198;28;20017;-85
2023/01/12 06:28:41;;;;;;;4.50;3.22;;;;;;;7.26;100.00;100584.97;5229907;28;20040;-84
2023/01/12 06:31:12;;;;;;;4.90;3.05;;;;;;;7.59;100.00;100636.09;5229014;28;20077;-84
2023/01/12 06:33:43;;;;;;;5.65;4.53;;;;;;;7.56;100.00;100652.69;5229177;28;20033;-84
2023/01/12 06:36:13;;;;;;;6.55;4.05;;;;;;;7.44;100.00;100619.69;5211240;28;20021;-86
2023/01/12 06:38:44;;;;;;;6.20;4.05;;;;;;;7.71;100.00;100649.47;5230011;28;20033;-83
2023/01/12 06:44:03;;;;;;;3.92;3.63;;;;;;;7.60;100.00;100659.22;5229848;28;20037;-84
2023/01/12 06:46:33;;;;;;;6.47;4.85;;;;;;;7.47;100.00;100623.78;5212194;28;20028;-86
2023/01/12 06:49:04;;;;;;;5.28;4.20;;;;;;;7.69;100.00;100668.53;5229678;28;20033;-86
2023/01/12 06:51:34;;;;;;;5.85;4.55;;;;;;;7.65;100.00;100653.13;5209481;28;20125;-85
2023/01/12 06:54:04;;;;;;;16.60;4.63;;;;;;;7.64;100.00;100681.03;5227888;28;20028;-86
2023/01/12 06:56:35;;;;;;;3.85;2.70;;;;;;;7.71;100.00;100671.78;5211299;28;20017;-85
2023/01/12 06:59:05;;;;;;;21.02;5.43;;;;;;;7.77;100.00;100670.00;5211312;28;20044;-86
2023/01/12 07:01:36;;;;;;;5.35;3.10;;;;;;;7.56;100.00;100646.50;5229177;28;20021;-85
2023/01/12 07:04:07;;;;;;;10.05;4.18;;;;;;;7.60;100.00;100643.09;5211859;28;20020;-85
2023/01/12 07:06:37;;;;;;;7.25;3.95;;;;;;;7.59;100.00;100646.81;5212629;28;20071;-85
2023/01/12 07:09:07;;;;;;;4.00;2.80;;;;;;;7.79;100.00;100679.47;5227930;28;20091;-86
2023/01/12 07:11:38;;;;;;;11.98;4.88;;;;;;;7.80;100.00;100661.44;5229753;28;20035;-86
2023/01/12 07:14:08;;;;;;;6.10;4.00;;;;;;;7.41;100.00;100610.25;5211240;28;20391;-86
2023/01/12 07:16:39;;;;;;;3.83;3.53;;;;;;;7.27;100.00;100587.41;5229729;28;20028;-86
2023/01/12 07:19:09;;;;;;;3.47;3.28;;;;;;;7.66;100.00;100654.75;5229473;28;20027;-87
2023/01/12 07:21:39;;;;;;;4.55;4.15;;;;;;;7.54;100.00;100627.94;5229061;28;20483;-85
2023/01/12 07:24:10;;;;;;;7.63;4.47;;;;;;;7.72;100.00;100678.78;5229136;28;20032;-85
2023/01/12 07:26:40;;;;;;;4.32;4.03;;;;;;;7.73;100.00;100656.22;5211908;28;20029;-85
2023/01/12 07:29:11;;;;;;;3.22;2.92;;;;;;;7.70;100.00;100639.78;5212268;28;20386;-85
2023/01/12 07:31:43;;;;;;;4.65;3.25;;;;;;;7.78;100.00;100658.19;5211873;28;20028;-85
2023/01/12 07:34:13;;;;;;;7.10;3.75;;;;;;;7.74;100.00;100655.19;5212336;28;20064;-85
2023/01/12 07:36:43;;;;;;;5.97;3.50;;;;;;;7.69;100.00;100649.72;5212029;28;20060;-85
2023/01/12 07:39:14;;;;;;;3.00;2.75;;;;;;;7.96;100.00;100684.03;5212503;28;20070;-86
2023/01/12 07:44:33;;;;;;;7.90;4.07;;;;;;;7.87;100.00;100686.28;5229963;28;20398;-85
2023/01/12 07:47:04;;;;;;;6.22;2.83;;;;;;;8.01;100.00;100702.94;5211828;28;20028;-85
2023/01/12 07:49:34;;;;;;;4.53;2.88;;;;;;;7.89;100.00;100668.06;5211901;28;20103;-86
2023/01/12 07:52:04;;;;;;;8.23;2.97;;;;;;;7.93;100.00;100687.22;5212187;28;20036;-84
2023/01/12 07:54:36;;;;;;;2.70;2.50;;;;;;;7.88;100.00;100671.81;5230367;28;20029;-86
2023/01/12 07:57:09;;;;;;;4.97;3.85;;;;;;;7.95;100.00;100702.03;5230844;28;20101;-86
2023/01/12 07:59:40;;;;;;;3.63;3.40;;;;;;;8.10;100.00;100718.44;5238314;22;20039;-64
2023/01/12 08:02:15;;;;;;;10.40;3.15;;;;;;;8.08;100.00;100690.16;5229425;28;20033;-64
2023/01/12 08:04:45;;;;;;;3.00;2.83;;;;;;;8.13;100.00;100727.88;5223450;28;20028;-64
2023/01/12 08:07:16;;;;;;;10.95;3.08;;;;;;;8.16;100.00;100710.44;5223367;28;20017;-64
2023/01/12 08:09:46;;;;;;;5.18;3.17;;;;;;;8.16;100.00;100697.81;5223091;28;20025;-64
2023/01/12 08:12:17;;;;;;;4.50;4.05;;;;;;;8.19;100.00;100708.09;5223101;28;20017;-64
2023/01/12 08:14:47;;;;;;;8.73;3.38;;;;;;;8.08;100.00;100704.41;5223704;28;20135;-64
2023/01/12 08:17:21;;;;;;;4.15;3.60;;;;;;;8.23;100.00;100724.56;5224339;28;20017;-64
2023/01/12 08:19:55;;;;;;;4.10;3.80;;;;;;;8.25;100.00;100714.38;5223616;28;20240;-64
2023/01/12 08:22:34;;;;;;;3.08;2.67;;;;;;;8.14;100.00;100700.75;5222879;28;20029;-65
2023/01/12 08:25:10;;;;;;;4.03;3.35;;;;;;;8.21;100.00;100707.84;5205565;28;20108;-64
2023/01/12 08:27:44;;;;;;;3.20;3.00;;;;;;;8.22;100.00;100722.94;5205275;28;20028;-65
2023/01/12 08:30:18;;;;;;;4.35;3.97;;;;;;;8.28;100.00;100730.03;5220304;28;20033;-65
2023/01/12 08:32:49;;;;;;;3.47;3.38;;;;;;;8.20;100.00;100722.34;5202487;28;20021;-64
2023/01/12 08:35:21;;;;;;;3.00;2.70;;;;;;;8.29;100.00;100737.84;5205076;28;20529;-64
2023/01/12 08:37:52;;;;;;;5.13;3.10;;;;;;;-141.48;100.00;69781.59;5205594;28;20511;-64
2023/01/12 08:41:30;;;;;;;4.68;2.72;;;;;;;8.31;100.00;100734.94;5222974;28;20025;-64
2023/01/12 08:44:00;;;;;;;3.40;3.15;;;;;;;8.31;100.00;100748.38;5215269;28;20537;-64
2023/01/12 08:46:06;;;;;;;4.03;2.42;;;;;;;8.30;100.00;100741.38;5223034;28;20384;-64
2023/01/12 08:48:38;;;;;;;3.03;2.47;;;;;;;8.31;100.00;100738.44;5223139;28;20049;-66
2023/01/12 08:51:08;;;;;;;3.90;3.22;;;;;;;8.28;100.00;100736.22;5223013;28;20036;-65
2023/01/12 08:53:38;;;;;;;3.47;3.25;;;;;;;8.31;100.00;100737.63;5222209;28;20466;-65
2023/01/12 08:56:09;;;;;;;5.85;2.58;;;;;;;8.33;100.00;100746.28;5225434;28;20024;-66
2023/01/12 08:58:39;;;;;;;4.30;3.50;;;;;;;8.34;100.00;100756.81;5226868;28;20063;-67
2023/01/12 09:01:12;;;;;;;3.83;3.33;;;;;;;8.33;100.00;100746.28;5209164;28;20029;-67
2023/01/12 09:03:46;;;;;;;6.47;3.10;;;;;;;-141.48;100.00;69781.59;5207774;28;20021;-68
2023/01/12 09:06:21;;;;;;;3.75;3.08;;;;;;;-141.48;100.00;69781.59;5227215;28;20300;-68
2023/01/12 09:08:59;;;;;;;5.00;3.45;;;;;;;8.37;100.00;100768.97;5227209;28;20024;-69
2023/01/12 09:11:31;;;;;;;5.82;3.03;;;;;;;8.43;100.00;100755.34;5227314;28;20033;-69
2023/01/12 09:14:02;;;;;;;4.85;2.63;;;;;;;8.37;100.00;100759.00;5226453;28;20094;-69
2023/01/12 09:16:33;;;;;;;6.07;3.30;;;;;;;-141.48;100.00;69781.59;5205493;28;20391;-69
2023/01/12 09:19:03;;;;;;;3.42;3.22;;;;;;;8.39;100.00;100762.25;5209175;28;20159;-69
2023/01/12 09:21:40;;;;;;;2.05;1.95;;;;;;;8.40;100.00;100758.50;5227129;28;20424;-69
2023/01/12 09:24:13;;;;;;;3.42;2.47;;;;;;;8.41;100.00;100759.31;5208568;28;20028;-69
2023/01/12 09:36:31;;;;;;;4.03;3.63;;;;;;;8.57;100.00;100766.59;5241661;28;20390;-68
2023/01/12 09:39:02;;;;;;;6.10;3.60;;;;;;;8.61;100.00;100783.09;5241815;28;20033;-68
2023/01/12 09:47:40;;;;;;;3.28;2.90;;;;;;;8.63;100.00;100787.16;5241801;28;20074;-67
2023/01/12 09:50:15;;;;;;;4.15;3.85;;;;;;;8.63;100.00;100792.53;5240872;28;20393;-68
2023/01/12 09:53:12;;;;;;;5.30;4.13;;;;;;;8.67;100.00;100807.13;5241236;28;20032;-68
2023/01/12 09:55:54;;;;;;;4.35;3.95;;;;;;;8.67;100.00;100807.13;5231352;28;20449;-69
2023/01/12 09:58:37;;;;;;;2.25;2.20;;;;;;;8.69;100.00;100801.50;5241930;28;20031;-69
2023/01/12 10:01:12;;;;;;;3.08;2.72;;;;;;;8.68;100.00;100811.44;5237554;28;20100;-69
2023/01/12 10:03:42;;;;;;;4.03;2.85;;;;;;;8.70;100.00;100805.81;5240359;28;20024;-69
2023/01/12 10:06:15;;;;;;;2.63;2.53;;;;;;;8.74;100.00;100820.44;5239630;28;20405;-70
2023/01/12 10:08:50;;;;;;;3.25;3.05;;;;;;;8.74;100.00;100805.09;5240959;28;20036;-69
2023/01/12 10:11:46;;;;;;;3.03;2.85;;;;;;;8.79;100.00;100821.34;5241656;28;20369;-69
2023/01/12 10:14:31;;;;;;;2.58;2.42;;;;;;;8.80;100.00;100808.69;5242651;28;20031;-69
2023/01/12 10:17:30;;;;;;;2.95;2.72;;;;;;;8.85;100.00;100816.84;5240406;28;20028;-69
2023/01/12 10:20:15;;;;;;;7.50;2.40;;;;;;;8.83;100.00;100818.97;5241792;28;20060;-69
2023/01/12 10:22:53;;;;;;;2.88;2.78;;;;;;;8.82;100.00;100819.22;5240921;28;20275;-68
2023/01/12 10:25:37;;;;;;;3.30;3.10;;;;;;;8.83;100.00;100818.16;5240958;28;20021;-68
2023/01/12 10:28:13;;;;;;;2.67;2.50;;;;;;;8.87;100.00;100819.28;5232835;28;20071;-69
2023/01/12 10:30:44;;;;;;;2.97;2.63;;;;;;;8.87;100.00;100817.41;5239172;28;20054;-69
2023/01/12 10:33:21;;;;;;;2.30;2.25;;;;;;;8.92;100.00;100819.38;5241331;28;20028;-70
2023/01/12 10:35:58;;;;;;;3.22;3.05;;;;;;;8.93;100.00;100819.13;5356087;22;20046;-69
2023/01/12 10:38:33;;;;;;;3.92;2.65;;;;;;;8.91;100.00;100820.44;5199078;28;20037;-69
2023/01/12 10:41:17;;;;;;;3.10;2.90;;;;;;;8.91;100.00;100818.56;5196386;28;20036;-69
2023/01/12 10:54:09;;;;;;;2.25;2.17;;;;;;;8.97;100.00;100816.75;5304515;27;20918;-68
2023/01/12 11:02:14;;;;;;;2.90;2.80;;;;;;;8.98;100.00;100813.00;5283620;27;20656;-67
2023/01/12 11:04:52;;;;;;;2.97;2.88;;;;;;;9.01;100.00;100820.56;5284455;28;20531;-67
2023/01/12 11:09:49;;;;;;;2.72;2.63;;;;;;;8.98;100.00;100811.09;5241995;28;20778;-66
2023/01/12 11:12:34;;;;;;;3.78;2.72;;;;;;;9.01;100.00;100817.88;5242249;28;20020;-65
2023/01/12 11:15:11;;;;;;;2.70;2.60;;;;;;;9.00;100.00;100819.75;5243153;28;20028;-67
